createdAt,value
2019-05-29T00:02:48.063Z,88.00
2019-05-29T00:06:52.758Z,88.50
2019-05-29T00:10:57.957Z,88.80
2019-05-29T00:15:03.421Z,87.70
2019-05-29T00:19:08.793Z,88.50
2019-05-29T00:23:14.602Z,88.70
2019-05-29T00:27:19.397Z,88.70
2019-05-29T00:31:24.130Z,89.30
2019-05-29T00:35:28.912Z,88.70
2019-05-29T00:39:33.598Z,88.40
2019-05-29T00:43:38.353Z,88.10
2019-05-29T00:47:43.925Z,88.10
2019-05-29T00:51:48.538Z,87.70
2019-05-29T00:55:53.797Z,88.00
2019-05-29T00:59:58.800Z,87.20
2019-05-29T01:04:03.377Z,87.90
2019-05-29T01:08:07.998Z,88.40
2019-05-29T01:12:12.866Z,88.80
2019-05-29T01:16:17.510Z,88.30
2019-05-29T01:20:22.253Z,89.00
2019-05-29T01:24:27.413Z,89.90
2019-05-29T01:28:32.026Z,89.00
2019-05-29T01:32:37.195Z,89.10
2019-05-29T01:36:41.769Z,90.60
2019-05-29T01:40:46.649Z,90.10
2019-05-29T01:45:06.699Z,90.30
2019-05-29T01:48:57.605Z,90.60
2019-05-29T01:53:02.243Z,90.70
2019-05-29T01:57:06.845Z,91.00
2019-05-29T02:01:11.503Z,91.50
2019-05-29T02:05:17.733Z,91.70
2019-05-29T02:09:24.153Z,92.10
2019-05-29T02:13:29.242Z,92.40
2019-05-29T02:17:33.814Z,92.70
2019-05-29T02:21:38.445Z,93.10
2019-05-29T02:25:43.062Z,92.70
2019-05-29T02:29:47.853Z,93.30
2019-05-29T02:33:52.551Z,93.20
2019-05-29T02:37:57.430Z,93.10
2019-05-29T02:42:02.427Z,93.30
2019-05-29T02:46:07.206Z,93.40
2019-05-29T02:50:12.254Z,93.30
2019-05-29T02:54:16.898Z,93.60
2019-05-29T02:58:23.565Z,93.70
2019-05-29T03:02:28.511Z,93.80
2019-05-29T03:06:34.611Z,93.70
2019-05-29T03:10:39.251Z,94.00
2019-05-29T03:14:43.917Z,94.00
2019-05-29T03:18:48.529Z,94.40
2019-05-29T03:22:53.208Z,94.50
2019-05-29T03:26:57.809Z,94.40
2019-05-29T03:31:02.766Z,94.60
2019-05-29T03:35:07.459Z,94.30
2019-05-29T03:39:12.743Z,94.90
2019-05-29T03:43:17.416Z,94.60
2019-05-29T03:47:22.019Z,94.60
2019-05-29T03:51:27.372Z,94.90
2019-05-29T03:55:33.784Z,94.60
2019-05-29T03:59:39.575Z,94.60
2019-05-29T04:03:44.195Z,94.70
2019-05-29T04:07:49.093Z,94.70
2019-05-29T04:11:53.683Z,94.40
2019-05-29T04:16:01.271Z,94.30
2019-05-29T04:20:06.620Z,95.10
2019-05-29T04:24:12.779Z,94.70
2019-05-29T04:28:17.740Z,94.70
2019-05-29T04:32:22.512Z,94.60
2019-05-29T04:36:28.680Z,94.50
2019-05-29T04:40:34.990Z,94.60
2019-05-29T04:44:41.111Z,94.40
2019-05-29T04:48:45.919Z,94.70
2019-05-29T04:52:50.528Z,94.80
2019-05-29T04:56:55.170Z,94.20
2019-05-29T05:00:59.859Z,94.50
2019-05-29T05:05:04.744Z,94.70
2019-05-29T05:09:10.306Z,94.50
2019-05-29T05:13:15.072Z,94.60
2019-05-29T05:17:26.252Z,94.60
2019-05-29T05:21:27.172Z,94.40
2019-05-29T05:25:32.202Z,94.20
2019-05-29T05:29:36.982Z,93.80
2019-05-29T05:33:41.601Z,93.30
2019-05-29T05:37:46.262Z,92.80
2019-05-29T05:41:50.853Z,93.00
2019-05-29T05:45:55.455Z,91.80
2019-05-29T05:50:00.332Z,92.10
2019-05-29T05:54:05.092Z,91.50
2019-05-29T05:58:10.972Z,91.30
2019-05-29T06:02:15.779Z,90.80
2019-05-29T06:06:20.458Z,90.30
2019-05-29T06:10:25.174Z,90.00
2019-05-29T06:14:29.861Z,88.90
2019-05-29T06:18:35.178Z,88.30
2019-05-29T06:22:41.119Z,88.60
2019-05-29T06:26:46.271Z,89.90
2019-05-29T06:30:51.264Z,88.80
2019-05-29T06:34:55.866Z,86.50
2019-05-29T06:39:00.810Z,84.50
2019-05-29T06:43:06.834Z,82.10
2019-05-29T06:47:11.750Z,77.40
2019-05-29T06:51:16.417Z,74.10
2019-05-29T06:55:21.313Z,69.50
2019-05-29T06:59:27.771Z,69.00
2019-05-29T07:03:32.437Z,68.60
2019-05-29T07:07:38.601Z,66.90
2019-05-29T07:11:45.409Z,66.50
2019-05-29T07:15:50.251Z,69.90
2019-05-29T07:20:03.256Z,68.30
2019-05-29T07:24:01.447Z,65.60
2019-05-29T07:28:06.189Z,66.70
2019-05-29T07:32:11.263Z,61.20
2019-05-29T07:36:17.126Z,50.90
2019-05-29T07:40:21.823Z,53.20
2019-05-29T07:44:26.455Z,54.00
2019-05-29T07:48:31.064Z,52.80
2019-05-29T07:52:35.950Z,51.90
2019-05-29T07:56:42.410Z,52.30
2019-05-29T08:01:09.299Z,49.30
2019-05-29T08:04:54.089Z,55.40
2019-05-29T08:08:58.860Z,57.90
2019-05-29T08:13:03.506Z,53.60
2019-05-29T08:17:08.186Z,55.70
2019-05-29T08:21:13.899Z,48.90
2019-05-29T08:25:18.671Z,51.70
2019-05-29T08:29:23.586Z,49.40
2019-05-29T08:33:28.236Z,44.00
2019-05-29T08:37:33.827Z,49.00
2019-05-29T08:41:38.898Z,55.70
2019-05-29T08:45:43.731Z,51.40
2019-05-29T08:49:52.503Z,42.90
2019-05-29T08:53:55.682Z,42.10
2019-05-29T08:58:00.284Z,51.80
2019-05-29T09:02:05.041Z,54.30
2019-05-29T09:06:13.342Z,52.00
2019-05-29T09:10:16.302Z,49.10
2019-05-29T09:14:20.972Z,45.00
2019-05-29T09:18:25.834Z,48.00
2019-05-29T09:22:30.730Z,54.00
2019-05-29T09:26:35.344Z,55.70
2019-05-29T09:30:40.408Z,51.50
2019-05-29T09:34:47.571Z,46.20
2019-05-29T09:38:53.370Z,43.00
2019-05-29T09:42:58.436Z,40.60
2019-05-29T09:47:03.212Z,38.10
2019-05-29T09:51:20.655Z,41.10
2019-05-29T09:55:14.279Z,38.60
2019-05-29T09:59:19.049Z,35.80
2019-05-29T10:03:23.785Z,41.20
2019-05-29T10:07:28.458Z,40.30
2019-05-29T10:11:33.065Z,45.30
2019-05-29T10:15:37.775Z,43.70
2019-05-29T10:19:42.989Z,40.80
2019-05-29T10:23:47.686Z,42.90
2019-05-29T10:27:52.947Z,41.20
2019-05-29T10:31:58.071Z,36.20
2019-05-29T10:36:04.019Z,38.80
2019-05-29T10:40:09.504Z,43.60
2019-05-29T10:44:14.236Z,42.30
2019-05-29T10:48:19.242Z,41.40
2019-05-29T10:52:24.130Z,35.60
2019-05-29T10:56:28.805Z,33.70
2019-05-29T11:00:38.341Z,32.70
2019-05-29T11:04:40.926Z,33.40
2019-05-29T11:08:45.868Z,39.30
2019-05-29T11:12:52.202Z,40.80
2019-05-29T11:16:57.710Z,42.40
2019-05-29T11:21:02.447Z,38.70
2019-05-29T11:25:21.435Z,35.70
2019-05-29T11:29:15.286Z,36.40
2019-05-29T11:33:19.917Z,38.20
2019-05-29T11:37:24.835Z,37.60
2019-05-29T11:41:29.422Z,38.30
2019-05-29T11:45:35.508Z,39.00
2019-05-29T11:49:40.644Z,39.30
2019-05-29T11:53:45.856Z,37.10
2019-05-29T11:57:51.731Z,35.90
2019-05-29T12:01:57.323Z,37.00
2019-05-29T12:06:03.361Z,37.80
2019-05-29T12:10:09.867Z,40.10
2019-05-29T12:14:14.925Z,40.50
2019-05-29T12:18:24.348Z,38.50
2019-05-29T12:22:27.091Z,41.10
2019-05-29T12:26:31.835Z,41.50
2019-05-29T12:30:36.755Z,42.00
2019-05-29T12:34:53.076Z,40.30
2019-05-29T12:38:48.091Z,39.30
2019-05-29T12:42:53.594Z,38.90
2019-05-29T12:46:59.801Z,35.40
2019-05-29T12:51:05.019Z,32.70
2019-05-29T12:55:10.384Z,38.40
2019-05-29T12:59:14.971Z,38.80
2019-05-29T13:03:19.965Z,38.10
2019-05-29T13:07:24.926Z,36.00
2019-05-29T13:11:29.607Z,36.90
2019-05-29T13:15:34.232Z,37.40
2019-05-29T13:19:38.950Z,36.90
2019-05-29T13:23:45.393Z,34.50
2019-05-29T13:27:50.239Z,35.30
2019-05-29T13:31:57.148Z,37.30
2019-05-29T13:36:02.235Z,36.00
2019-05-29T13:40:08.641Z,36.80
2019-05-29T13:44:14.317Z,35.00
2019-05-29T13:48:19.058Z,37.90
2019-05-29T13:52:23.745Z,38.50
2019-05-29T13:56:28.640Z,38.10
2019-05-29T14:00:34.888Z,39.50
2019-05-29T14:04:47.998Z,39.20
2019-05-29T14:08:52.652Z,39.30
2019-05-29T14:12:58.830Z,39.10
2019-05-29T14:17:04.592Z,38.60
2019-05-29T14:21:09.377Z,38.40
2019-05-29T14:25:14.503Z,38.90
2019-05-29T14:29:19.281Z,39.00
2019-05-29T14:33:24.022Z,36.60
2019-05-29T14:37:28.931Z,35.60
2019-05-29T14:41:33.628Z,35.80
2019-05-29T14:45:38.304Z,39.10
2019-05-29T14:49:42.988Z,39.80
2019-05-29T14:53:48.192Z,42.00
2019-05-29T14:57:52.877Z,41.50
2019-05-29T15:01:57.551Z,39.20
2019-05-29T15:06:03.450Z,42.10
2019-05-29T15:10:23.973Z,43.70
2019-05-29T15:14:15.936Z,42.70
2019-05-29T15:18:20.781Z,43.40
2019-05-29T15:22:25.710Z,42.70
2019-05-29T15:26:30.696Z,42.10
2019-05-29T15:30:36.579Z,41.50
2019-05-29T15:34:41.483Z,42.00
2019-05-29T15:38:46.612Z,43.00
2019-05-29T15:42:51.228Z,43.60
2019-05-29T15:46:56.032Z,44.00
2019-05-29T15:51:00.766Z,44.30
2019-05-29T15:55:21.191Z,42.90
2019-05-29T15:59:14.198Z,42.40
2019-05-29T16:03:18.591Z,42.30
2019-05-29T16:07:23.628Z,41.60
2019-05-29T16:11:28.207Z,42.60
2019-05-29T16:15:32.855Z,41.00
2019-05-29T16:19:37.560Z,42.10
2019-05-29T16:23:42.275Z,42.80
2019-05-29T16:27:47.177Z,42.90
2019-05-29T16:31:51.805Z,42.60
2019-05-29T16:35:56.469Z,42.40
2019-05-29T16:40:01.193Z,41.70
2019-05-29T16:44:06.563Z,43.10
2019-05-29T16:48:12.863Z,42.60
2019-05-29T16:52:18.776Z,43.20
2019-05-29T16:56:23.864Z,43.00
2019-05-29T17:00:28.543Z,43.00
2019-05-29T17:04:33.163Z,43.10
2019-05-29T17:08:38.195Z,43.00
2019-05-29T17:12:42.842Z,43.10
2019-05-29T17:16:47.610Z,42.70
2019-05-29T17:20:52.248Z,42.80
2019-05-29T17:24:57.137Z,42.80
2019-05-29T17:29:02.315Z,44.50
2019-05-29T17:33:07.084Z,44.50
2019-05-29T17:37:11.987Z,44.60
2019-05-29T17:41:17.320Z,45.40
2019-05-29T17:45:24.563Z,45.20
2019-05-29T17:49:34.280Z,45.40
2019-05-29T17:53:35.187Z,45.50
2019-05-29T17:57:39.896Z,45.60
2019-05-29T18:01:44.770Z,45.50
2019-05-29T18:05:49.960Z,45.20
2019-05-29T18:09:55.872Z,46.00
2019-05-29T18:14:06.623Z,45.70
2019-05-29T18:18:08.772Z,47.50
2019-05-29T18:22:13.922Z,46.40
2019-05-29T18:26:19.825Z,47.00
2019-05-29T18:30:24.700Z,47.40
2019-05-29T18:34:29.722Z,46.50
2019-05-29T18:38:34.462Z,46.40
2019-05-29T18:42:39.179Z,46.90
2019-05-29T18:46:43.830Z,47.10
2019-05-29T18:50:48.709Z,48.10
2019-05-29T18:54:53.436Z,48.10
2019-05-29T18:58:58.084Z,49.30
2019-05-29T19:03:03.646Z,49.00
2019-05-29T19:07:08.694Z,49.60
2019-05-29T19:11:13.542Z,49.60
2019-05-29T19:15:19.563Z,49.80
2019-05-29T19:19:28.377Z,49.00
2019-05-29T19:23:33.243Z,51.10
2019-05-29T19:27:41.860Z,51.70
2019-05-29T19:31:45.126Z,52.70
2019-05-29T19:35:50.674Z,53.10
2019-05-29T19:39:55.849Z,53.90
2019-05-29T19:44:03.795Z,54.20
2019-05-29T19:48:08.523Z,55.50
2019-05-29T19:52:13.341Z,55.70
2019-05-29T19:56:18.055Z,56.60
2019-05-29T20:00:23.206Z,55.60
2019-05-29T20:04:28.469Z,56.30
2019-05-29T20:08:36.279Z,57.30
2019-05-29T20:12:39.613Z,57.80
2019-05-29T20:16:44.404Z,58.10
2019-05-29T20:20:49.184Z,59.10
2019-05-29T20:24:53.971Z,60.40
2019-05-29T20:28:58.682Z,61.10
2019-05-29T20:33:03.645Z,61.40
2019-05-29T20:37:08.757Z,62.20
2019-05-29T20:41:13.978Z,62.40
2019-05-29T20:45:18.825Z,63.60
2019-05-29T20:49:23.756Z,63.80
2019-05-29T20:53:28.500Z,64.20
2019-05-29T20:57:38.046Z,64.80
2019-05-29T21:01:47.243Z,65.80
2019-05-29T21:05:49.951Z,66.30
2019-05-29T21:09:55.102Z,67.50
2019-05-29T21:13:59.699Z,68.30
2019-05-29T21:18:04.419Z,68.30
2019-05-29T21:22:10.428Z,68.30
2019-05-29T21:26:15.663Z,69.20
2019-05-29T21:30:24.469Z,68.30
2019-05-29T21:34:29.406Z,68.00
2019-05-29T21:38:36.023Z,67.70
2019-05-29T21:42:40.944Z,68.40
2019-05-29T21:46:45.671Z,69.00
2019-05-29T21:50:50.717Z,68.80
2019-05-29T21:54:55.347Z,69.70
2019-05-29T21:59:04.139Z,70.00
2019-05-29T22:03:06.370Z,70.30
2019-05-29T22:07:11.494Z,68.30
2019-05-29T22:11:16.443Z,70.10
2019-05-29T22:15:21.144Z,70.50
2019-05-29T22:19:25.807Z,71.50
2019-05-29T22:23:30.502Z,70.40
2019-05-29T22:27:35.207Z,71.50
2019-05-29T22:31:40.135Z,70.70
2019-05-29T22:35:45.035Z,72.10
2019-05-29T22:39:49.638Z,72.80
2019-05-29T22:43:56.240Z,74.10
2019-05-29T22:48:02.318Z,74.90
2019-05-29T22:52:07.757Z,76.00
2019-05-29T22:56:12.687Z,76.60
2019-05-29T23:00:18.398Z,76.70
2019-05-29T23:04:23.279Z,78.10
2019-05-29T23:08:27.966Z,78.50
2019-05-29T23:12:32.550Z,79.30
2019-05-29T23:16:37.210Z,80.60
2019-05-29T23:20:41.875Z,79.60
2019-05-29T23:24:46.825Z,81.30
2019-05-29T23:28:52.790Z,81.10
2019-05-29T23:32:58.763Z,81.50
2019-05-29T23:37:04.036Z,79.80
2019-05-29T23:41:08.613Z,81.00
2019-05-29T23:45:13.464Z,81.10
2019-05-29T23:49:18.127Z,82.00
2019-05-29T23:53:23.516Z,82.40
2019-05-29T23:57:28.608Z,82.70
